Time;durP1;ratioP1;P1;durP2;ratioP2;P2;SDS_P1;SDS_P2;PMS_P1;PMS_P2;Temp;Humidity;BMP_temperature;BMP_pressure;BME280_temperature;BME280_humidity;BME280_pressure;Samples;Min_cycle;Max_cycle;Signal;HPM_P1;HPM_P2
2024/02/24 00:00:17;;;;;;;;;;;;;;;20.07;44.76;99425.72;2066004;28;6603;-59
2024/02/24 00:01:18;;;;;;;;;;;;;;;20.09;44.63;99422.16;2069715;28;1695;-59
2024/02/24 00:02:20;;;;;;;;;;;;;;;20.09;44.71;99428.63;2067617;28;2174;-58
2024/02/24 00:03:21;;;;;;;;;;;;;;;20.09;44.66;99420.03;2067026;28;1684;-59
2024/02/24 00:04:23;;;;;;;;;;;;;;;20.09;44.80;99417.16;2067628;28;2074;-59
2024/02/24 00:05:26;;;;;;;;;;;;;;;20.09;44.95;99428.63;2068478;28;2066;-60
2024/02/24 00:06:27;;;;;;;;;;;;;;;20.09;44.76;99428.63;2070964;28;2015;-59
2024/02/24 00:07:28;;;;;;;;;;;;;;;20.09;44.87;99420.03;2067650;28;2127;-59
2024/02/24 00:08:30;;;;;;;;;;;;;;;20.09;44.97;99430.78;2064327;28;2295;-59
2024/02/24 00:09:31;;;;;;;;;;;;;;;20.08;44.96;99432.91;2065558;28;2257;-59
2024/02/24 00:10:32;;;;;;;;;;;;;;;20.07;44.94;99422.84;2066528;28;2270;-59
2024/02/24 00:11:34;;;;;;;;;;;;;;;20.08;44.90;99432.91;2067184;28;2150;-60
2024/02/24 00:12:36;;;;;;;;;;;;;;;20.08;44.89;99427.16;2066435;28;2101;-58
2024/02/24 00:13:37;;;;;;;;;;;;;;;20.08;45.03;99432.91;2070556;28;2180;-59
2024/02/24 00:14:38;;;;;;;;;;;;;;;20.07;44.99;99430.72;2069462;28;1641;-59
2024/02/24 00:15:40;;;;;;;;;;;;;;;20.06;45.03;99429.97;2066081;28;2149;-59
2024/02/24 00:16:41;;;;;;;;;;;;;;;20.07;44.96;99422.13;2065762;28;2085;-60
2024/02/24 00:17:43;;;;;;;;;;;;;;;20.06;44.99;99424.22;2068335;28;1704;-59
2024/02/24 00:18:45;;;;;;;;;;;;;;;20.06;44.97;99426.38;2068787;28;1677;-60
2024/02/24 00:19:46;;;;;;;;;;;;;;;20.05;45.20;99434.28;2067052;28;2191;-60
2024/02/24 00:20:47;;;;;;;;;;;;;;;20.04;45.18;99429.97;2066529;28;2551;-59
2024/02/24 00:21:49;;;;;;;;;;;;;;;20.04;45.18;99421.34;2065941;28;2111;-60
2024/02/24 00:22:50;;;;;;;;;;;;;;;20.03;45.20;99425.59;2067613;28;1694;-60
2024/02/24 00:23:52;;;;;;;;;;;;;;;20.02;45.31;99424.16;2067159;28;2004;-58
2024/02/24 00:24:53;;;;;;;;;;;;;;;20.01;45.24;99422.69;2066795;28;2076;-59
2024/02/24 00:25:54;;;;;;;;;;;;;;;20.02;45.37;99429.91;2065474;28;2155;-59
2024/02/24 00:26:56;;;;;;;;;;;;;;;20.02;45.16;99424.16;2067524;28;1929;-59
2024/02/24 00:27:57;;;;;;;;;;;;;;;20.02;45.21;99432.78;2066517;28;2077;-60
2024/02/24 00:28:58;;;;;;;;;;;;;;;20.01;45.16;99428.44;2069044;28;1697;-59
2024/02/24 00:30:00;;;;;;;;;;;;;;;20.01;45.27;99428.44;2066209;28;2023;-59
2024/02/24 00:31:01;;;;;;;;;;;;;;;20.01;45.33;99425.56;2068344;28;7732;-59
2024/02/24 00:32:02;;;;;;;;;;;;;;;20.00;45.19;99426.97;2065263;28;2133;-59
2024/02/24 00:33:04;;;;;;;;;;;;;;;20.01;45.17;99424.81;2068012;28;2170;-59
2024/02/24 00:34:05;;;;;;;;;;;;;;;20.00;45.35;99429.84;2067554;28;2085;-59
2024/02/24 00:35:07;;;;;;;;;;;;;;;20.00;45.24;99426.97;2070239;28;1639;-60
2024/02/24 00:36:08;;;;;;;;;;;;;;;20.00;45.26;99432.72;2068991;28;2118;-60
2024/02/24 00:37:10;;;;;;;;;;;;;;;19.99;45.19;99424.78;2065462;28;2103;-60
2024/02/24 00:38:12;;;;;;;;;;;;;;;20.00;45.07;99426.97;2068315;28;2054;-59
2024/02/24 00:39:13;;;;;;;;;;;;;;;20.00;45.09;99429.84;2068241;28;2138;-59
2024/02/24 00:40:15;;;;;;;;;;;;;;;20.00;45.05;99426.97;2066466;28;2144;-59
2024/02/24 00:41:16;;;;;;;;;;;;;;;19.99;45.04;99425.50;2067952;28;1662;-58
2024/02/24 00:42:17;;;;;;;;;;;;;;;19.99;44.98;99431.25;2066934;28;2339;-59
2024/02/24 00:43:19;;;;;;;;;;;;;;;19.99;44.90;99428.38;2066074;28;2114;-59
2024/02/24 00:44:20;;;;;;;;;;;;;;;19.99;45.11;99424.78;2066688;28;2136;-59
2024/02/24 00:45:21;;;;;;;;;;;;;;;19.99;45.02;99424.78;2066029;28;2097;-59
2024/02/24 00:46:23;;;;;;;;;;;;;;;19.99;45.01;99424.78;2068757;28;2031;-59
2024/02/24 00:47:24;;;;;;;;;;;;;;;19.98;44.91;99424.06;2066875;28;2129;-59
2024/02/24 00:48:27;;;;;;;;;;;;;;;19.99;45.01;99419.75;2065330;28;2080;-59
2024/02/24 00:49:31;;;;;;;;;;;;;;;19.97;44.94;99428.31;2065764;28;2295;-63
2024/02/24 00:50:33;;;;;;;;;;;;;;;19.97;44.99;99422.56;2066701;28;2035;-64
2024/02/24 00:51:34;;;;;;;;;;;;;;;19.97;45.05;99424.72;2066911;28;1992;-62
2024/02/24 00:52:36;;;;;;;;;;;;;;;19.96;45.04;99424.00;2068413;28;2019;-62
2024/02/24 00:53:38;;;;;;;;;;;;;;;19.96;45.01;99429.75;2066321;28;1906;-62
2024/02/24 00:54:39;;;;;;;;;;;;;;;19.96;44.92;99426.88;2066923;28;1690;-62
2024/02/24 00:55:40;;;;;;;;;;;;;;;19.96;44.88;99429.00;2066846;28;2141;-62
2024/02/24 00:56:42;;;;;;;;;;;;;;;19.95;44.96;99431.16;2066414;28;2060;-62
2024/02/24 00:57:43;;;;;;;;;;;;;;;19.95;44.86;99427.53;2067357;28;1629;-62
2024/02/24 00:58:45;;;;;;;;;;;;;;;19.94;44.90;99423.94;2067350;28;2168;-62
2024/02/24 00:59:46;;;;;;;;;;;;;;;19.95;44.92;99433.28;2065314;28;2234;-63
2024/02/24 01:00:47;;;;;;;;;;;;;;;19.94;44.79;99429.69;2067449;28;6407;-62
2024/02/24 01:01:49;;;;;;;;;;;;;;;19.94;44.90;99423.94;2067055;28;2081;-62
2024/02/24 01:02:50;;;;;;;;;;;;;;;19.93;44.93;99425.38;2068273;28;1644;-62
2024/02/24 01:03:51;;;;;;;;;;;;;;;19.93;44.77;99422.50;2064909;28;1787;-62
2024/02/24 01:04:53;;;;;;;;;;;;;;;19.93;44.96;99425.38;2067295;28;1919;-61
2024/02/24 01:05:54;;;;;;;;;;;;;;;19.92;44.88;99432.50;2067396;28;2072;-62
2024/02/24 01:06:57;;;;;;;;;;;;;;;19.93;44.87;99428.25;2066373;28;2037;-62
2024/02/24 01:07:59;;;;;;;;;;;;;;;19.92;44.84;99426.75;2065434;28;2213;-62
2024/02/24 01:09:01;;;;;;;;;;;;;;;19.91;45.01;99425.31;2067317;28;2113;-62
2024/02/24 01:10:02;;;;;;;;;;;;;;;19.90;44.79;99423.84;2065940;28;2128;-62
2024/02/24 01:11:05;;;;;;;;;;;;;;;19.91;45.04;99425.31;2063917;28;2092;-62
2024/02/24 01:12:07;;;;;;;;;;;;;;;19.90;44.86;99423.09;2066665;28;2138;-62
2024/02/24 01:13:08;;;;;;;;;;;;;;;19.90;44.79;99417.38;2066517;28;1911;-62
2024/02/24 01:14:09;;;;;;;;;;;;;;;19.90;44.77;99423.84;2074502;28;2557;-62
2024/02/24 01:15:11;;;;;;;;;;;;;;;19.89;44.78;99419.50;2064856;28;2566;-62
2024/02/24 01:16:12;;;;;;;;;;;;;;;19.88;44.99;99421.66;2066081;28;2495;-61
2024/02/24 01:17:14;;;;;;;;;;;;;;;19.88;44.91;99420.91;2068892;28;2389;-62
2024/02/24 01:18:15;;;;;;;;;;;;;;;19.88;44.83;99418.03;2068225;28;1738;-62
2024/02/24 01:19:17;;;;;;;;;;;;;;;19.88;44.84;99420.91;2068573;28;2052;-62
2024/02/24 01:20:18;;;;;;;;;;;;;;;19.88;44.93;99426.66;2068769;28;2162;-61
2024/02/24 01:21:20;;;;;;;;;;;;;;;19.87;44.93;99425.19;2069277;28;2065;-62
2024/02/24 01:22:21;;;;;;;;;;;;;;;19.87;44.93;99419.47;2070291;28;2147;-62
2024/02/24 01:23:24;;;;;;;;;;;;;;;19.87;44.99;99419.47;2067050;28;2138;-62
2024/02/24 01:24:25;;;;;;;;;;;;;;;19.87;44.93;99416.59;2068126;28;2314;-62
2024/02/24 01:25:27;;;;;;;;;;;;;;;19.87;44.97;99422.31;2069374;28;2541;-62
2024/02/24 01:26:28;;;;;;;;;;;;;;;19.85;44.83;99419.41;2069631;28;1882;-62
2024/02/24 01:27:29;;;;;;;;;;;;;;;19.84;44.97;99424.41;2069887;28;1643;-62
2024/02/24 01:28:31;;;;;;;;;;;;;;;19.85;45.03;99419.41;2067223;28;2104;-62
2024/02/24 01:29:32;;;;;;;;;;;;;;;19.84;44.94;99415.81;2069421;28;1624;-62
2024/02/24 01:30:33;;;;;;;;;;;;;;;19.85;44.88;99422.28;2067385;28;6239;-62
2024/02/24 01:31:35;;;;;;;;;;;;;;;19.85;44.88;99425.16;2066129;28;2198;-62
2024/02/24 01:32:36;;;;;;;;;;;;;;;19.83;44.99;99420.06;2066843;28;2823;-62
2024/02/24 01:33:38;;;;;;;;;;;;;;;19.83;44.83;99425.81;2067355;28;2130;-62
2024/02/24 01:34:39;;;;;;;;;;;;;;;19.84;44.90;99423.69;2068278;28;2097;-62
2024/02/24 01:35:40;;;;;;;;;;;;;;;19.84;45.06;99426.56;2068778;28;2262;-62
2024/02/24 01:36:42;;;;;;;;;;;;;;;19.82;44.82;99430.13;2068150;28;2078;-62
2024/02/24 01:37:43;;;;;;;;;;;;;;;19.83;44.99;99436.59;2065768;28;2095;-63
2024/02/24 01:38:45;;;;;;;;;;;;;;;19.83;44.86;99436.59;2064563;28;2210;-62
2024/02/24 01:39:46;;;;;;;;;;;;;;;19.82;45.08;99432.25;2066603;28;2272;-62
2024/02/24 01:40:47;;;;;;;;;;;;;;;19.81;44.91;99431.53;2066625;28;2103;-62
2024/02/24 01:41:49;;;;;;;;;;;;;;;19.81;44.90;99422.16;2069911;28;2134;-62
2024/02/24 01:42:50;;;;;;;;;;;;;;;19.80;45.05;99427.19;2067886;28;2094;-62
2024/02/24 01:43:51;;;;;;;;;;;;;;;19.80;44.89;99427.19;2068229;28;2192;-62
2024/02/24 01:44:53;;;;;;;;;;;;;;;19.79;44.88;99424.97;2068572;28;2125;-62
2024/02/24 01:45:55;;;;;;;;;;;;;;;19.78;44.95;99429.28;2068406;28;2125;-61
2024/02/24 01:46:56;;;;;;;;;;;;;;;19.79;44.95;99422.13;2067242;28;2244;-62
2024/02/24 01:47:58;;;;;;;;;;;;;;;19.79;45.01;99420.00;2068179;28;1688;-62
2024/02/24 01:48:59;;;;;;;;;;;;;;;19.79;44.78;99416.38;2069018;28;2144;-62
2024/02/24 01:50:02;;;;;;;;;;;;;;;19.80;44.86;99414.97;2068729;28;1754;-62
2024/02/24 01:51:03;;;;;;;;;;;;;;;19.80;44.77;99421.44;2068710;28;2177;-62
2024/02/24 01:52:05;;;;;;;;;;;;;;;19.81;44.85;99427.91;2067826;28;2216;-62
2024/02/24 01:53:07;;;;;;;;;;;;;;;19.81;44.94;99422.91;2065032;28;2186;-62
2024/02/24 01:54:09;;;;;;;;;;;;;;;19.81;44.88;99410.69;2068011;28;1938;-62
2024/02/24 01:55:11;;;;;;;;;;;;;;;19.81;44.93;99414.31;2067313;28;2029;-62
2024/02/24 01:56:13;;;;;;;;;;;;;;;19.81;45.12;99416.41;2069101;28;2139;-62
2024/02/24 01:57:14;;;;;;;;;;;;;;;19.83;44.98;99419.34;2067205;28;2196;-62
2024/02/24 01:58:20;;;;;;;;;;;;;;;19.82;44.99;99412.16;2069102;28;2252;-62
2024/02/24 01:59:21;;;;;;;;;;;;;;;19.83;44.91;99413.59;2068459;28;2063;-62
2024/02/24 02:00:23;;;;;;;;;;;;;;;19.84;45.04;99409.34;2067953;28;6078;-61
2024/02/24 02:01:24;;;;;;;;;;;;;;;19.84;44.89;99415.09;2068720;28;1633;-63
2024/02/24 02:02:25;;;;;;;;;;;;;;;19.84;45.03;99421.56;2068499;28;1756;-62
2024/02/24 02:03:27;;;;;;;;;;;;;;;19.85;44.98;99417.25;2067916;28;2120;-61
2024/02/24 02:04:28;;;;;;;;;;;;;;;19.86;45.20;99406.53;2067765;28;2025;-62
2024/02/24 02:05:30;;;;;;;;;;;;;;;19.86;45.06;99423.75;2069523;28;2002;-62
2024/02/24 02:06:31;;;;;;;;;;;;;;;19.86;44.95;99415.84;2068695;28;1727;-62
2024/02/24 02:07:34;;;;;;;;;;;;;;;19.87;44.90;99413.72;2067813;28;1895;-62
2024/02/24 02:08:35;;;;;;;;;;;;;;;19.87;45.19;99413.72;2068051;28;2123;-62
2024/02/24 02:09:56;;;;;;;;;;;;;;;19.86;44.97;99413.00;2068124;28;2090;-62
2024/02/24 02:10:57;;;;;;;;;;;;;;;19.87;45.13;99413.72;2070054;28;1680;-62
2024/02/24 02:11:59;;;;;;;;;;;;;;;19.87;45.00;99416.59;2070285;28;1695;-63
2024/02/24 02:13:04;;;;;;;;;;;;;;;19.86;45.26;99406.53;2065767;28;2217;-62
2024/02/24 02:14:06;;;;;;;;;;;;;;;19.86;45.06;99406.53;2068129;28;2473;-62
2024/02/24 02:15:08;;;;;;;;;;;;;;;19.86;45.17;99412.25;2067471;28;2137;-63
2024/02/24 02:16:10;;;;;;;;;;;;;;;19.86;45.15;99412.25;2068070;28;2208;-62
2024/02/24 02:17:11;;;;;;;;;;;;;;;19.84;45.15;99403.59;2068004;28;2102;-62
2024/02/24 02:18:12;;;;;;;;;;;;;;;19.84;45.31;99407.19;2069978;28;1628;-62
2024/02/24 02:19:14;;;;;;;;;;;;;;;19.85;45.27;99410.78;2068352;28;2179;-62
2024/02/24 02:20:15;;;;;;;;;;;;;;;19.84;45.31;99409.34;2066932;28;1628;-62
2024/02/24 02:21:17;;;;;;;;;;;;;;;19.82;45.22;99404.25;2069313;28;1628;-61
2024/02/24 02:22:22;;;;;;;;;;;;;;;19.84;45.27;99409.34;2067028;28;2080;-62
2024/02/24 02:23:24;;;;;;;;;;;;;;;19.83;45.30;99408.59;2067002;28;2210;-62
2024/02/24 02:24:25;;;;;;;;;;;;;;;19.83;45.25;99408.59;2065801;28;2246;-62
2024/02/24 02:25:27;;;;;;;;;;;;;;;19.84;45.20;99409.34;2068015;28;1661;-62
2024/02/24 02:26:28;;;;;;;;;;;;;;;19.83;45.43;99410.72;2066068;28;2122;-62
2024/02/24 02:27:30;;;;;;;;;;;;;;;19.83;45.35;99404.97;2067522;28;2320;-62
2024/02/24 02:28:31;;;;;;;;;;;;;;;19.81;45.48;99411.44;2067559;28;2168;-62
2024/02/24 02:29:33;;;;;;;;;;;;;;;19.81;45.37;99405.69;2066606;28;2074;-62
2024/02/24 02:30:34;;;;;;;;;;;;;;;19.80;45.41;99401.34;2063608;28;6232;-61
2024/02/24 02:31:35;;;;;;;;;;;;;;;19.81;45.28;99402.81;2069245;28;2140;-61
2024/02/24 02:32:37;;;;;;;;;;;;;;;19.81;45.43;99402.06;2065749;28;2020;-62
2024/02/24 02:33:38;;;;;;;;;;;;;;;19.81;45.30;99402.06;2066301;28;2174;-62
2024/02/24 02:34:40;;;;;;;;;;;;;;;19.81;45.50;99404.94;2069333;28;2016;-62
2024/02/24 02:35:41;;;;;;;;;;;;;;;19.79;45.08;99408.50;2071446;28;2089;-62
2024/02/24 02:36:43;;;;;;;;;;;;;;;19.80;45.11;99406.34;2067997;28;2011;-61
2024/02/24 02:37:44;;;;;;;;;;;;;;;19.81;45.03;99404.94;2069026;28;2086;-62
2024/02/24 02:38:45;;;;;;;;;;;;;;;19.81;45.26;99402.06;2068660;28;2074;-62
2024/02/24 02:39:47;;;;;;;;;;;;;;;19.80;45.07;99404.22;2068964;28;2588;-62
2024/02/24 02:40:48;;;;;;;;;;;;;;;19.79;45.35;99407.75;2069999;28;2098;-62
2024/02/24 02:41:49;;;;;;;;;;;;;;;19.79;45.19;99413.50;2067627;28;2156;-62
2024/02/24 02:42:51;;;;;;;;;;;;;;;19.79;45.15;99413.50;2067896;28;2109;-61
2024/02/24 02:43:52;;;;;;;;;;;;;;;19.79;45.26;99407.75;2068835;28;2172;-62
2024/02/24 02:44:53;;;;;;;;;;;;;;;19.79;45.21;99413.50;2068471;28;2217;-62
2024/02/24 02:45:55;;;;;;;;;;;;;;;19.79;45.19;99410.63;2068223;28;2421;-62
2024/02/24 02:46:56;;;;;;;;;;;;;;;19.78;45.19;99414.91;2069698;28;2098;-62
2024/02/24 02:47:57;;;;;;;;;;;;;;;19.78;45.23;99412.03;2068828;28;2144;-62
2024/02/24 02:48:59;;;;;;;;;;;;;;;19.78;45.18;99406.31;2067495;28;2073;-62
2024/02/24 02:50:00;;;;;;;;;;;;;;;19.78;45.33;99409.91;2069220;28;2073;-62
2024/02/24 02:51:02;;;;;;;;;;;;;;;19.78;45.14;99412.03;2067457;28;2113;-61
2024/02/24 02:52:03;;;;;;;;;;;;;;;19.77;45.02;99407.69;2069888;28;2111;-62
2024/02/24 02:53:05;;;;;;;;;;;;;;;19.77;45.08;99407.69;2065722;28;2190;-62
2024/02/24 02:54:06;;;;;;;;;;;;;;;19.76;45.09;99404.09;2067729;28;2087;-62
2024/02/24 02:55:08;;;;;;;;;;;;;;;19.76;45.06;99412.72;2069060;28;2239;-62
2024/02/24 02:56:11;;;;;;;;;;;;;;;19.77;45.26;99404.81;2068459;28;1789;-62
2024/02/24 02:57:13;;;;;;;;;;;;;;;19.77;45.10;99407.69;2067684;28;2211;-61
2024/02/24 02:58:14;;;;;;;;;;;;;;;19.76;45.19;99404.09;2067084;28;2183;-62
2024/02/24 02:59:16;;;;;;;;;;;;;;;19.76;45.16;99412.72;2066839;28;2014;-62
2024/02/24 03:00:17;;;;;;;;;;;;;;;19.74;45.03;99406.19;2067608;28;6102;-62
2024/02/24 03:01:18;;;;;;;;;;;;;;;19.76;45.04;99403.38;2065922;28;2168;-62
2024/02/24 03:02:20;;;;;;;;;;;;;;;19.75;44.88;99404.78;2066610;28;2189;-62
2024/02/24 03:03:21;;;;;;;;;;;;;;;19.75;45.09;99410.53;2066578;28;2154;-62
2024/02/24 03:04:22;;;;;;;;;;;;;;;19.75;45.12;99410.53;2066533;28;2275;-62
2024/02/24 03:05:24;;;;;;;;;;;;;;;19.75;45.05;99414.13;2067193;28;2124;-62
2024/02/24 03:06:25;;;;;;;;;;;;;;;19.74;45.23;99406.91;2065410;28;2134;-62
2024/02/24 03:07:28;;;;;;;;;;;;;;;19.74;45.22;99420.53;2066681;28;2202;-63
2024/02/24 03:08:32;;;;;;;;;;;;;;;19.73;45.12;99411.22;2065466;28;2179;-62
2024/02/24 03:09:34;;;;;;;;;;;;;;;19.73;45.17;99410.47;2065744;28;2477;-61
2024/02/24 03:10:36;;;;;;;;;;;;;;;19.72;45.11;99409.00;2067360;28;2138;-62
2024/02/24 03:11:37;;;;;;;;;;;;;;;19.73;45.10;99410.47;2066488;28;2372;-62
2024/02/24 03:12:39;;;;;;;;;;;;;;;19.72;45.11;99414.75;2065661;28;2187;-62
2024/02/24 03:13:40;;;;;;;;;;;;;;;19.72;45.03;99414.75;2067880;28;2142;-62
2024/02/24 03:14:42;;;;;;;;;;;;;;;19.70;45.21;99409.69;2065863;28;2144;-62
2024/02/24 03:15:43;;;;;;;;;;;;;;;19.71;45.06;99413.31;2065724;28;2150;-62
2024/02/24 03:16:45;;;;;;;;;;;;;;;19.70;45.18;99417.56;2066878;28;2122;-62
2024/02/24 03:17:46;;;;;;;;;;;;;;;19.70;45.04;99420.44;2064573;28;2139;-62
2024/02/24 03:18:49;;;;;;;;;;;;;;;19.69;45.15;99416.84;2067152;28;2154;-62
2024/02/24 03:19:50;;;;;;;;;;;;;;;19.70;45.06;99421.19;2065933;28;2106;-62
2024/02/24 03:20:52;;;;;;;;;;;;;;;19.70;45.04;99417.56;2066718;28;2114;-62
2024/02/24 03:21:53;;;;;;;;;;;;;;;19.69;45.15;99422.59;2066104;28;2434;-62
2024/02/24 03:22:54;;;;;;;;;;;;;;;19.70;45.23;99420.44;2066681;28;2118;-62
2024/02/24 03:23:56;;;;;;;;;;;;;;;19.68;45.14;99421.09;2066679;28;2118;-62
2024/02/24 03:24:57;;;;;;;;;;;;;;;19.67;45.18;99417.47;2065744;28;2208;-62
2024/02/24 03:25:58;;;;;;;;;;;;;;;19.67;45.15;99426.09;2067734;28;2401;-62
2024/02/24 03:27:00;;;;;;;;;;;;;;;19.66;45.15;99424.66;2065559;28;2170;-62
2024/02/24 03:28:02;;;;;;;;;;;;;;;19.66;45.11;99427.53;2066641;28;2226;-62
2024/02/24 03:29:03;;;;;;;;;;;;;;;19.66;45.00;99424.66;2065698;28;2267;-62
2024/02/24 03:30:05;;;;;;;;;;;;;;;19.65;45.06;99420.31;2065763;28;6671;-62
2024/02/24 03:31:06;;;;;;;;;;;;;;;19.66;45.12;99418.19;2067583;28;2074;-61
2024/02/24 03:32:07;;;;;;;;;;;;;;;19.65;45.12;99423.19;2069666;28;2144;-62
2024/02/24 03:33:09;;;;;;;;;;;;;;;19.64;45.17;99413.09;2068287;28;1894;-62
2024/02/24 03:34:11;;;;;;;;;;;;;;;19.64;45.16;99415.25;2065268;28;2083;-62
2024/02/24 03:35:12;;;;;;;;;;;;;;;19.65;45.15;99411.72;2068716;28;2071;-62
2024/02/24 03:36:14;;;;;;;;;;;;;;;19.65;45.01;99411.72;2066063;28;2269;-62
2024/02/24 03:37:15;;;;;;;;;;;;;;;19.65;45.13;99405.22;2065202;28;2175;-62
2024/02/24 03:38:17;;;;;;;;;;;;;;;19.66;45.11;99401.69;2065797;28;2141;-62
2024/02/24 03:39:18;;;;;;;;;;;;;;;19.65;44.86;99410.97;2065698;28;2210;-62
2024/02/24 03:40:20;;;;;;;;;;;;;;;19.65;45.03;99410.97;2066190;28;2499;-62
2024/02/24 03:41:21;;;;;;;;;;;;;;;19.65;45.12;99416.69;2068523;28;1696;-62
2024/02/24 03:42:22;;;;;;;;;;;;;;;19.66;45.09;99418.91;2065868;28;2106;-62
2024/02/24 03:43:24;;;;;;;;;;;;;;;19.66;45.07;99421.78;2066004;28;2134;-62
2024/02/24 03:44:25;;;;;;;;;;;;;;;19.68;45.26;99426.84;2065953;28;2083;-62
2024/02/24 03:45:27;;;;;;;;;;;;;;;19.68;45.14;99418.22;2067026;28;2211;-62
2024/02/24 03:46:28;;;;;;;;;;;;;;;19.70;45.21;99417.56;2064801;28;2029;-62
2024/02/24 03:47:29;;;;;;;;;;;;;;;19.71;45.11;99419.03;2066310;28;2008;-62
2024/02/24 03:48:31;;;;;;;;;;;;;;;19.72;45.03;99423.38;2067228;28;2044;-62
2024/02/24 03:49:33;;;;;;;;;;;;;;;19.73;45.11;99434.19;2066410;28;2048;-62
2024/02/24 03:50:34;;;;;;;;;;;;;;;19.74;45.16;99432.75;2065007;28;2122;-62
2024/02/24 03:51:35;;;;;;;;;;;;;;;19.74;45.15;99432.03;2067296;28;2036;-62
2024/02/24 03:52:39;;;;;;;;;;;;;;;19.76;45.12;99426.34;2067765;28;2013;-62
2024/02/24 03:53:40;;;;;;;;;;;;;;;19.77;45.29;99433.53;2069066;28;1972;-62
2024/02/24 03:54:42;;;;;;;;;;;;;;;19.77;45.11;99433.53;2070469;28;1988;-62
2024/02/24 03:55:43;;;;;;;;;;;;;;;19.78;45.09;99429.28;2064926;28;2012;-62
2024/02/24 03:56:44;;;;;;;;;;;;;;;19.78;45.28;99423.53;2066253;28;2052;-62
2024/02/24 03:57:46;;;;;;;;;;;;;;;19.78;45.30;99423.53;2067378;28;1932;-62
2024/02/24 03:58:47;;;;;;;;;;;;;;;19.79;45.16;99433.59;2067037;28;1980;-62
2024/02/24 03:59:48;;;;;;;;;;;;;;;19.79;45.32;99425.72;2065928;28;2028;-62
2024/02/24 04:00:50;;;;;;;;;;;;;;;19.79;45.27;99425.72;2063484;28;6060;-62
2024/02/24 04:01:53;;;;;;;;;;;;;;;19.80;45.40;99437.94;2065377;28;2044;-62
2024/02/24 04:02:54;;;;;;;;;;;;;;;19.81;45.56;99439.41;2066650;28;1999;-62
2024/02/24 04:03:55;;;;;;;;;;;;;;;19.81;45.35;99436.53;2065190;28;2333;-63
2024/02/24 04:04:57;;;;;;;;;;;;;;;19.81;45.33;99439.41;2066063;28;2346;-62
2024/02/24 04:05:59;;;;;;;;;;;;;;;19.82;45.50;99441.59;2065132;28;2322;-62
2024/02/24 04:07:00;;;;;;;;;;;;;;;19.83;45.37;99445.19;2065393;28;2299;-63
2024/02/24 04:08:01;;;;;;;;;;;;;;;19.83;45.51;99431.56;2066175;28;2104;-62
2024/02/24 04:09:03;;;;;;;;;;;;;;;19.83;45.59;99434.44;2066373;28;2028;-62
2024/02/24 04:10:05;;;;;;;;;;;;;;;19.84;45.58;99444.53;2066711;28;2019;-62
2024/02/24 04:11:06;;;;;;;;;;;;;;;19.84;45.57;99438.78;2064847;28;2119;-62
2024/02/24 04:12:08;;;;;;;;;;;;;;;19.85;45.63;99445.25;2065482;28;1975;-63
2024/02/24 04:13:09;;;;;;;;;;;;;;;19.84;45.70;99443.81;2067022;28;2016;-62
2024/02/24 04:14:11;;;;;;;;;;;;;;;19.85;45.71;99439.50;2068590;28;1660;-62
2024/02/24 04:15:19;;;;;;;;;;;;;;;19.85;45.80;99439.50;2063321;28;2040;-62
2024/02/24 04:16:20;;;;;;;;;;;;;;;19.86;45.76;99441.72;2066236;28;2020;-63
2024/02/24 04:17:21;;;;;;;;;;;;;;;19.85;45.77;99448.13;2064762;28;2012;-62
2024/02/24 04:18:23;;;;;;;;;;;;;;;19.85;45.70;99440.22;2065029;28;2013;-62
2024/02/24 04:19:24;;;;;;;;;;;;;;;19.86;45.77;99441.00;2066598;28;2147;-62
2024/02/24 04:20:26;;;;;;;;;;;;;;;19.85;45.88;99440.22;2065177;28;2040;-59
2024/02/24 04:21:27;;;;;;;;;;;;;;;19.86;45.70;99435.25;2064663;28;2015;-61
2024/02/24 04:22:28;;;;;;;;;;;;;;;19.87;46.03;99445.31;2065285;28;2020;-62
2024/02/24 04:23:30;;;;;;;;;;;;;;;19.86;45.85;99435.25;2065766;28;2138;-62
2024/02/24 04:24:31;;;;;;;;;;;;;;;19.86;45.91;99435.25;2064874;28;1992;-61
2024/02/24 04:25:33;;;;;;;;;;;;;;;19.85;45.82;99436.63;2064960;28;2310;-62
2024/02/24 04:26:34;;;;;;;;;;;;;;;19.85;45.72;99428.03;2066546;28;2000;-62
2024/02/24 04:27:36;;;;;;;;;;;;;;;19.85;45.76;99433.75;2065132;28;2020;-62
2024/02/24 04:28:37;;;;;;;;;;;;;;;19.86;45.91;99441.72;2066420;28;1981;-62
2024/02/24 04:29:38;;;;;;;;;;;;;;;19.85;45.90;99439.50;2065723;28;2024;-62
2024/02/24 04:30:41;;;;;;;;;;;;;;;19.85;45.94;99445.25;2064021;28;6591;-62
2024/02/24 04:31:42;;;;;;;;;;;;;;;19.86;45.92;99443.88;2064775;28;2114;-62
2024/02/24 04:32:44;;;;;;;;;;;;;;;19.85;45.91;99445.25;2065222;28;2091;-61
2024/02/24 04:33:45;;;;;;;;;;;;;;;19.85;46.04;99445.25;2067241;28;1994;-62
2024/02/24 04:34:47;;;;;;;;;;;;;;;19.85;45.97;99440.22;2066968;28;2067;-62
2024/02/24 04:35:48;;;;;;;;;;;;;;;19.83;46.01;99445.19;2066921;28;1992;-62
2024/02/24 04:36:50;;;;;;;;;;;;;;;19.86;45.86;99441.72;2065841;28;1993;-62
2024/02/24 04:37:51;;;;;;;;;;;;;;;19.85;45.89;99445.25;2064620;28;2069;-62
2024/02/24 04:38:52;;;;;;;;;;;;;;;19.85;45.87;99448.13;2064571;28;2000;-62
2024/02/24 04:39:54;;;;;;;;;;;;;;;19.84;45.98;99443.81;2066615;28;2004;-62
2024/02/24 04:40:55;;;;;;;;;;;;;;;19.84;46.02;99455.28;2065689;28;2343;-61
2024/02/24 04:41:57;;;;;;;;;;;;;;;19.85;45.82;99445.25;2066023;28;1962;-62
2024/02/24 04:42:58;;;;;;;;;;;;;;;19.86;45.79;99446.72;2066028;28;2036;-62
2024/02/24 04:44:00;;;;;;;;;;;;;;;19.87;45.95;99436.69;2065756;28;1964;-62
2024/02/24 04:45:01;;;;;;;;;;;;;;;19.86;45.88;99447.47;2066764;28;1980;-62
2024/02/24 04:46:03;;;;;;;;;;;;;;;19.87;45.98;99442.44;2066000;28;2018;-63
2024/02/24 04:47:04;;;;;;;;;;;;;;;19.87;46.17;99443.16;2067545;28;2276;-61
2024/02/24 04:48:06;;;;;;;;;;;;;;;19.88;46.34;99449.63;2065562;28;2127;-62
2024/02/24 04:49:08;;;;;;;;;;;;;;;19.88;46.25;99444.63;2064339;28;2010;-62
2024/02/24 04:50:10;;;;;;;;;;;;;;;19.89;46.29;99448.25;2066569;28;2103;-62
2024/02/24 04:51:11;;;;;;;;;;;;;;;19.89;46.37;99451.09;2066452;28;1944;-62
2024/02/24 04:52:13;;;;;;;;;;;;;;;19.89;46.51;99445.38;2066366;28;2024;-62
2024/02/24 04:53:14;;;;;;;;;;;;;;;19.90;46.36;99449.69;2068003;28;2044;-62
2024/02/24 04:54:16;;;;;;;;;;;;;;;19.91;46.26;99448.28;2068137;28;2047;-62
2024/02/24 04:55:17;;;;;;;;;;;;;;;19.91;46.44;99444.69;2067176;28;1967;-62
2024/02/24 04:56:18;;;;;;;;;;;;;;;19.91;46.46;99454.03;2067642;28;2091;-63
2024/02/24 04:57:20;;;;;;;;;;;;;;;19.91;46.46;99450.44;2068027;28;1997;-62
2024/02/24 04:58:24;;;;;;;;;;;;;;;19.91;46.34;99451.16;2068249;28;2001;-62
2024/02/24 04:59:25;;;;;;;;;;;;;;;19.91;46.65;99454.03;2066880;28;2398;-63
2024/02/24 05:00:27;;;;;;;;;;;;;;;19.91;46.73;99459.06;2065285;28;6232;-62
2024/02/24 05:01:28;;;;;;;;;;;;;;;19.91;46.63;99456.19;2068198;28;2083;-62
2024/02/24 05:02:29;;;;;;;;;;;;;;;19.90;46.80;99464.06;2067751;28;2001;-62
2024/02/24 05:03:31;;;;;;;;;;;;;;;19.92;46.96;99457.63;2067639;28;2053;-62
2024/02/24 05:04:32;;;;;;;;;;;;;;;19.90;46.74;99464.06;2067176;28;2047;-62
2024/02/24 05:05:34;;;;;;;;;;;;;;;19.89;46.80;99459.72;2067587;28;2287;-62
2024/02/24 05:06:35;;;;;;;;;;;;;;;19.90;46.66;99466.19;2068969;28;1902;-62
2024/02/24 05:07:36;;;;;;;;;;;;;;;19.91;46.55;99459.06;2066329;28;2056;-62
2024/02/24 05:08:38;;;;;;;;;;;;;;;19.90;46.65;99464.06;2066163;28;2044;-62
2024/02/24 05:09:39;;;;;;;;;;;;;;;19.90;46.67;99457.59;2068436;28;2009;-62
2024/02/24 05:10:41;;;;;;;;;;;;;;;19.90;46.78;99466.94;2069455;28;1949;-62
2024/02/24 05:11:42;;;;;;;;;;;;;;;19.90;46.78;99463.31;2067437;28;2254;-62
2024/02/24 05:12:47;;;;;;;;;;;;;;;19.89;46.72;99456.84;2066972;28;2111;-62
2024/02/24 05:13:49;;;;;;;;;;;;;;;19.89;46.87;99468.34;2068850;28;2019;-62
2024/02/24 05:14:50;;;;;;;;;;;;;;;19.90;46.79;99471.94;2066888;28;1976;-62
2024/02/24 05:15:52;;;;;;;;;;;;;;;19.91;46.95;99465.53;2067147;28;2067;-62
2024/02/24 05:16:53;;;;;;;;;;;;;;;19.89;46.93;99468.34;2068625;28;2079;-62
2024/02/24 05:17:54;;;;;;;;;;;;;;;19.91;46.83;99470.56;2067714;28;2024;-62
2024/02/24 05:18:56;;;;;;;;;;;;;;;19.91;46.92;99477.03;2067789;28;1973;-62
2024/02/24 05:19:57;;;;;;;;;;;;;;;19.92;46.83;99480.63;2066929;28;2106;-62
2024/02/24 05:20:59;;;;;;;;;;;;;;;19.92;46.79;99477.75;2066847;28;2053;-62
2024/02/24 05:22:00;;;;;;;;;;;;;;;19.91;46.68;99482.75;2068513;28;2086;-62
2024/02/24 05:23:02;;;;;;;;;;;;;;;19.92;46.59;99472.72;2067401;28;1703;-62
2024/02/24 05:24:03;;;;;;;;;;;;;;;19.92;46.64;99478.47;2065898;28;2107;-62
2024/02/24 05:25:06;;;;;;;;;;;;;;;19.93;46.64;99484.94;2067433;28;2091;-62